sensor_id;sensor_type;location;lat;lon;timestamp;temperature;humidity
27314;DHT22;14800;48.174;9.798;2023-04-03T00:00:40;5.90;81.30
27314;DHT22;14800;48.174;9.798;2023-04-03T00:03:05;5.90;81.10
27314;DHT22;14800;48.174;9.798;2023-04-03T00:05:31;5.80;80.90
27314;DHT22;14800;48.174;9.798;2023-04-03T00:07:56;5.80;80.90
27314;DHT22;14800;48.174;9.798;2023-04-03T00:10:22;5.80;80.90
27314;DHT22;14800;48.174;9.798;2023-04-03T00:12:48;5.70;81.00
27314;DHT22;14800;48.174;9.798;2023-04-03T00:15:14;5.70;81.00
27314;DHT22;14800;48.174;9.798;2023-04-03T00:17:39;5.70;81.10
27314;DHT22;14800;48.174;9.798;2023-04-03T00:20:05;5.70;81.00
27314;DHT22;14800;48.174;9.798;2023-04-03T00:22:31;5.70;80.90
27314;DHT22;14800;48.174;9.798;2023-04-03T00:24:57;5.70;81.00
27314;DHT22;14800;48.174;9.798;2023-04-03T00:27:22;5.60;80.90
27314;DHT22;14800;48.174;9.798;2023-04-03T00:29:48;5.60;81.00
27314;DHT22;14800;48.174;9.798;2023-04-03T00:32:13;5.60;81.10
27314;DHT22;14800;48.174;9.798;2023-04-03T00:34:39;5.60;81.10
27314;DHT22;14800;48.174;9.798;2023-04-03T00:37:05;5.60;80.90
27314;DHT22;14800;48.174;9.798;2023-04-03T00:39:31;5.60;80.90
27314;DHT22;14800;48.174;9.798;2023-04-03T00:41:57;5.60;80.90
27314;DHT22;14800;48.174;9.798;2023-04-03T00:47:13;5.50;81.30
27314;DHT22;14800;48.174;9.798;2023-04-03T00:49:41;5.50;81.10
27314;DHT22;14800;48.174;9.798;2023-04-03T00:52:13;5.50;81.10
27314;DHT22;14800;48.174;9.798;2023-04-03T00:54:42;5.60;81.30
27314;DHT22;14800;48.174;9.798;2023-04-03T00:57:10;5.50;81.30
27314;DHT22;14800;48.174;9.798;2023-04-03T00:59:42;5.50;81.30
27314;DHT22;14800;48.174;9.798;2023-04-03T01:02:09;5.60;81.20
27314;DHT22;14800;48.174;9.798;2023-04-03T01:04:41;5.60;80.90
27314;DHT22;14800;48.174;9.798;2023-04-03T01:07:20;5.60;80.80
27314;DHT22;14800;48.174;9.798;2023-04-03T01:09:48;5.60;80.70
27314;DHT22;14800;48.174;9.798;2023-04-03T01:12:31;5.50;80.60
27314;DHT22;14800;48.174;9.798;2023-04-03T01:15:09;5.60;80.70
27314;DHT22;14800;48.174;9.798;2023-04-03T01:17:39;5.50;80.40
27314;DHT22;14800;48.174;9.798;2023-04-03T01:25:36;5.50;80.30
27314;DHT22;14800;48.174;9.798;2023-04-03T01:28:03;5.50;80.00
27314;DHT22;14800;48.174;9.798;2023-04-03T01:33:34;5.50;79.30
27314;DHT22;14800;48.174;9.798;2023-04-03T01:36:00;5.40;79.30
27314;DHT22;14800;48.174;9.798;2023-04-03T01:38:26;5.40;79.10
27314;DHT22;14800;48.174;9.798;2023-04-03T01:40:52;5.40;79.00
27314;DHT22;14800;48.174;9.798;2023-04-03T01:43:17;5.40;79.10
27314;DHT22;14800;48.174;9.798;2023-04-03T01:45:43;5.40;78.80
27314;DHT22;14800;48.174;9.798;2023-04-03T01:48:08;5.30;78.60
27314;DHT22;14800;48.174;9.798;2023-04-03T01:50:34;5.30;78.50
27314;DHT22;14800;48.174;9.798;2023-04-03T01:52:59;5.30;79.20
27314;DHT22;14800;48.174;9.798;2023-04-03T01:55:25;5.30;78.30
27314;DHT22;14800;48.174;9.798;2023-04-03T01:57:51;5.30;78.10
27314;DHT22;14800;48.174;9.798;2023-04-03T02:00:16;5.30;78.10
27314;DHT22;14800;48.174;9.798;2023-04-03T02:02:42;5.30;78.10
27314;DHT22;14800;48.174;9.798;2023-04-03T02:05:08;5.30;78.00
27314;DHT22;14800;48.174;9.798;2023-04-03T02:07:33;5.30;77.70
27314;DHT22;14800;48.174;9.798;2023-04-03T02:09:59;5.30;77.50
27314;DHT22;14800;48.174;9.798;2023-04-03T02:12:25;5.30;78.00
27314;DHT22;14800;48.174;9.798;2023-04-03T02:14:50;5.30;77.10
27314;DHT22;14800;48.174;9.798;2023-04-03T02:17:16;5.30;76.90
27314;DHT22;14800;48.174;9.798;2023-04-03T02:19:42;5.30;76.60
27314;DHT22;14800;48.174;9.798;2023-04-03T02:22:07;5.30;76.20
27314;DHT22;14800;48.174;9.798;2023-04-03T02:24:33;5.20;76.10
27314;DHT22;14800;48.174;9.798;2023-04-03T02:26:59;5.30;76.10
27314;DHT22;14800;48.174;9.798;2023-04-03T02:29:25;5.20;75.90
27314;DHT22;14800;48.174;9.798;2023-04-03T02:31:50;5.20;76.00
27314;DHT22;14800;48.174;9.798;2023-04-03T02:34:16;5.20;76.00
27314;DHT22;14800;48.174;9.798;2023-04-03T02:36:42;5.20;75.90
27314;DHT22;14800;48.174;9.798;2023-04-03T02:39:08;5.20;75.80
27314;DHT22;14800;48.174;9.798;2023-04-03T02:41:33;5.20;75.80
27314;DHT22;14800;48.174;9.798;2023-04-03T02:44:01;5.20;75.70
27314;DHT22;14800;48.174;9.798;2023-04-03T02:46:27;5.20;75.30
27314;DHT22;14800;48.174;9.798;2023-04-03T02:48:52;5.20;75.40
27314;DHT22;14800;48.174;9.798;2023-04-03T02:51:18;5.20;74.90
27314;DHT22;14800;48.174;9.798;2023-04-03T02:53:43;5.20;75.00
27314;DHT22;14800;48.174;9.798;2023-04-03T02:56:09;5.10;74.80
27314;DHT22;14800;48.174;9.798;2023-04-03T02:58:34;5.10;74.80
27314;DHT22;14800;48.174;9.798;2023-04-03T03:01:01;5.10;74.30
27314;DHT22;14800;48.174;9.798;2023-04-03T03:03:26;5.10;74.10
27314;DHT22;14800;48.174;9.798;2023-04-03T03:06:04;5.10;74.10
27314;DHT22;14800;48.174;9.798;2023-04-03T03:08:30;5.10;73.80
27314;DHT22;14800;48.174;9.798;2023-04-03T03:10:56;5.10;74.30
27314;DHT22;14800;48.174;9.798;2023-04-03T03:13:21;5.10;74.30
27314;DHT22;14800;48.174;9.798;2023-04-03T03:15:47;5.10;73.90
27314;DHT22;14800;48.174;9.798;2023-04-03T03:18:13;5.10;73.70
27314;DHT22;14800;48.174;9.798;2023-04-03T03:20:38;5.10;73.80
27314;DHT22;14800;48.174;9.798;2023-04-03T03:23:04;5.10;74.00
27314;DHT22;14800;48.174;9.798;2023-04-03T03:25:29;5.10;74.00
27314;DHT22;14800;48.174;9.798;2023-04-03T03:27:55;5.10;74.00
27314;DHT22;14800;48.174;9.798;2023-04-03T03:30:20;5.10;74.20
27314;DHT22;14800;48.174;9.798;2023-04-03T03:32:46;5.10;74.50
27314;DHT22;14800;48.174;9.798;2023-04-03T03:35:11;5.10;74.40
27314;DHT22;14800;48.174;9.798;2023-04-03T03:37:37;5.10;74.50
27314;DHT22;14800;48.174;9.798;2023-04-03T03:40:03;5.10;74.50
27314;DHT22;14800;48.174;9.798;2023-04-03T03:42:28;5.20;74.30
27314;DHT22;14800;48.174;9.798;2023-04-03T03:44:54;5.20;74.40
27314;DHT22;14800;48.174;9.798;2023-04-03T03:47:20;5.20;74.50
27314;DHT22;14800;48.174;9.798;2023-04-03T03:49:45;5.20;74.30
27314;DHT22;14800;48.174;9.798;2023-04-03T03:52:11;5.20;74.10
27314;DHT22;14800;48.174;9.798;2023-04-03T03:54:37;5.20;73.90
27314;DHT22;14800;48.174;9.798;2023-04-03T03:57:03;5.10;73.60
27314;DHT22;14800;48.174;9.798;2023-04-03T03:59:29;5.10;73.90
27314;DHT22;14800;48.174;9.798;2023-04-03T04:01:55;5.10;73.90
27314;DHT22;14800;48.174;9.798;2023-04-03T04:04:21;5.10;73.80
27314;DHT22;14800;48.174;9.798;2023-04-03T04:06:47;5.10;73.80
27314;DHT22;14800;48.174;9.798;2023-04-03T04:09:12;5.10;73.80
27314;DHT22;14800;48.174;9.798;2023-04-03T04:11:38;5.00;73.80
27314;DHT22;14800;48.174;9.798;2023-04-03T04:14:05;5.00;73.40
27314;DHT22;14800;48.174;9.798;2023-04-03T04:16:31;5.00;73.40
27314;DHT22;14800;48.174;9.798;2023-04-03T04:18:57;5.00;73.50
27314;DHT22;14800;48.174;9.798;2023-04-03T04:21:22;5.00;73.50
27314;DHT22;14800;48.174;9.798;2023-04-03T04:23:48;5.00;73.60
27314;DHT22;14800;48.174;9.798;2023-04-03T04:26:13;5.00;73.90
27314;DHT22;14800;48.174;9.798;2023-04-03T04:28:39;5.00;73.80
27314;DHT22;14800;48.174;9.798;2023-04-03T04:31:04;5.00;73.70
27314;DHT22;14800;48.174;9.798;2023-04-03T04:33:30;5.10;73.90
27314;DHT22;14800;48.174;9.798;2023-04-03T04:35:56;5.10;74.20
27314;DHT22;14800;48.174;9.798;2023-04-03T04:38:21;5.00;74.30
27314;DHT22;14800;48.174;9.798;2023-04-03T04:40:48;5.10;74.50
27314;DHT22;14800;48.174;9.798;2023-04-03T04:43:14;5.10;74.60
27314;DHT22;14800;48.174;9.798;2023-04-03T04:45:41;5.10;74.60
27314;DHT22;14800;48.174;9.798;2023-04-03T04:48:07;5.10;74.50
27314;DHT22;14800;48.174;9.798;2023-04-03T04:50:33;5.10;74.30
27314;DHT22;14800;48.174;9.798;2023-04-03T04:52:58;5.10;74.10
27314;DHT22;14800;48.174;9.798;2023-04-03T04:55:24;5.10;74.10
27314;DHT22;14800;48.174;9.798;2023-04-03T04:57:49;5.10;74.10
27314;DHT22;14800;48.174;9.798;2023-04-03T05:00:15;5.10;74.10
27314;DHT22;14800;48.174;9.798;2023-04-03T05:02:41;5.10;73.90
27314;DHT22;14800;48.174;9.798;2023-04-03T05:05:07;5.30;73.90
27314;DHT22;14800;48.174;9.798;2023-04-03T05:07:33;5.10;73.60
27314;DHT22;14800;48.174;9.798;2023-04-03T05:09:58;5.10;73.40
27314;DHT22;14800;48.174;9.798;2023-04-03T05:12:24;5.10;73.40
27314;DHT22;14800;48.174;9.798;2023-04-03T05:14:50;5.10;73.30
27314;DHT22;14800;48.174;9.798;2023-04-03T05:17:15;5.10;73.30
27314;DHT22;14800;48.174;9.798;2023-04-03T05:19:41;5.10;73.30
27314;DHT22;14800;48.174;9.798;2023-04-03T05:22:06;5.10;73.40
27314;DHT22;14800;48.174;9.798;2023-04-03T05:24:32;5.10;73.30
27314;DHT22;14800;48.174;9.798;2023-04-03T05:26:58;5.10;73.20
27314;DHT22;14800;48.174;9.798;2023-04-03T05:29:24;5.10;73.10
27314;DHT22;14800;48.174;9.798;2023-04-03T05:31:50;5.10;73.10
27314;DHT22;14800;48.174;9.798;2023-04-03T05:34:16;5.10;73.20
27314;DHT22;14800;48.174;9.798;2023-04-03T05:36:41;5.10;73.30
27314;DHT22;14800;48.174;9.798;2023-04-03T05:39:08;5.10;73.30
27314;DHT22;14800;48.174;9.798;2023-04-03T05:41:34;5.10;73.40
27314;DHT22;14800;48.174;9.798;2023-04-03T05:43:59;5.10;73.40
27314;DHT22;14800;48.174;9.798;2023-04-03T05:46:25;5.10;73.30
27314;DHT22;14800;48.174;9.798;2023-04-03T05:48:51;5.30;73.30
27314;DHT22;14800;48.174;9.798;2023-04-03T05:51:20;5.10;73.30
27314;DHT22;14800;48.174;9.798;2023-04-03T05:53:47;5.10;73.30
27314;DHT22;14800;48.174;9.798;2023-04-03T05:56:13;5.10;73.40
27314;DHT22;14800;48.174;9.798;2023-04-03T05:58:39;5.10;73.60
27314;DHT22;14800;48.174;9.798;2023-04-03T06:01:05;5.10;73.60
27314;DHT22;14800;48.174;9.798;2023-04-03T06:03:31;5.10;73.80
27314;DHT22;14800;48.174;9.798;2023-04-03T06:05:57;5.10;73.80
27314;DHT22;14800;48.174;9.798;2023-04-03T06:08:22;5.20;73.70
27314;DHT22;14800;48.174;9.798;2023-04-03T06:10:49;5.20;73.60
27314;DHT22;14800;48.174;9.798;2023-04-03T06:13:15;5.20;73.60
27314;DHT22;14800;48.174;9.798;2023-04-03T06:15:41;5.20;73.60
27314;DHT22;14800;48.174;9.798;2023-04-03T06:18:07;5.20;73.60
27314;DHT22;14800;48.174;9.798;2023-04-03T06:20:32;5.20;73.60
27314;DHT22;14800;48.174;9.798;2023-04-03T06:22:58;5.20;73.50
27314;DHT22;14800;48.174;9.798;2023-04-03T06:25:23;5.20;73.50
27314;DHT22;14800;48.174;9.798;2023-04-03T06:27:49;5.20;73.60
27314;DHT22;14800;48.174;9.798;2023-04-03T06:30:15;5.20;73.70
27314;DHT22;14800;48.174;9.798;2023-04-03T06:32:41;5.20;73.80
27314;DHT22;14800;48.174;9.798;2023-04-03T06:35:07;5.20;73.80
27314;DHT22;14800;48.174;9.798;2023-04-03T06:37:32;5.20;73.80
27314;DHT22;14800;48.174;9.798;2023-04-03T06:39:58;5.30;73.80
27314;DHT22;14800;48.174;9.798;2023-04-03T06:42:26;5.20;73.70
27314;DHT22;14800;48.174;9.798;2023-04-03T06:44:51;5.20;73.80
27314;DHT22;14800;48.174;9.798;2023-04-03T06:47:17;5.20;73.80
27314;DHT22;14800;48.174;9.798;2023-04-03T06:49:43;5.30;73.90
27314;DHT22;14800;48.174;9.798;2023-04-03T06:52:09;5.30;73.50
27314;DHT22;14800;48.174;9.798;2023-04-03T06:54:35;5.30;73.80
27314;DHT22;14800;48.174;9.798;2023-04-03T06:57:01;5.30;73.80
27314;DHT22;14800;48.174;9.798;2023-04-03T06:59:27;5.30;73.80
27314;DHT22;14800;48.174;9.798;2023-04-03T07:01:53;5.30;73.80
27314;DHT22;14800;48.174;9.798;2023-04-03T07:04:18;5.20;73.90
27314;DHT22;14800;48.174;9.798;2023-04-03T07:06:46;5.30;74.00
27314;DHT22;14800;48.174;9.798;2023-04-03T07:09:13;5.30;73.90
27314;DHT22;14800;48.174;9.798;2023-04-03T07:11:38;5.30;73.80
27314;DHT22;14800;48.174;9.798;2023-04-03T07:14:04;5.30;74.00
27314;DHT22;14800;48.174;9.798;2023-04-03T07:16:31;5.30;74.00
27314;DHT22;14800;48.174;9.798;2023-04-03T07:18:57;5.30;74.00
27314;DHT22;14800;48.174;9.798;2023-04-03T07:21:23;5.30;73.70
27314;DHT22;14800;48.174;9.798;2023-04-03T07:23:48;5.30;73.80
27314;DHT22;14800;48.174;9.798;2023-04-03T07:26:14;5.30;74.00
27314;DHT22;14800;48.174;9.798;2023-04-03T07:28:40;5.40;74.10
27314;DHT22;14800;48.174;9.798;2023-04-03T07:31:08;5.30;74.00
27314;DHT22;14800;48.174;9.798;2023-04-03T07:33:37;5.40;74.00
27314;DHT22;14800;48.174;9.798;2023-04-03T07:36:04;5.40;74.10
27314;DHT22;14800;48.174;9.798;2023-04-03T07:38:30;5.40;74.00
27314;DHT22;14800;48.174;9.798;2023-04-03T07:40:56;5.40;74.20
27314;DHT22;14800;48.174;9.798;2023-04-03T07:43:22;5.40;74.40
27314;DHT22;14800;48.174;9.798;2023-04-03T07:45:50;5.40;74.50
27314;DHT22;14800;48.174;9.798;2023-04-03T07:48:18;5.50;74.60
27314;DHT22;14800;48.174;9.798;2023-04-03T07:50:44;5.50;74.60
27314;DHT22;14800;48.174;9.798;2023-04-03T07:53:10;5.50;74.80
27314;DHT22;14800;48.174;9.798;2023-04-03T07:55:36;5.60;74.90
27314;DHT22;14800;48.174;9.798;2023-04-03T07:58:11;5.60;75.00
27314;DHT22;14800;48.174;9.798;2023-04-03T08:00:37;5.70;75.10
27314;DHT22;14800;48.174;9.798;2023-04-03T08:03:04;5.70;75.00
27314;DHT22;14800;48.174;9.798;2023-04-03T08:05:30;5.80;75.00
27314;DHT22;14800;48.174;9.798;2023-04-03T08:07:55;5.80;74.80
27314;DHT22;14800;48.174;9.798;2023-04-03T08:10:21;5.90;74.80
27314;DHT22;14800;48.174;9.798;2023-04-03T08:12:47;5.90;74.80
27314;DHT22;14800;48.174;9.798;2023-04-03T08:15:13;6.00;74.80
27314;DHT22;14800;48.174;9.798;2023-04-03T08:17:39;6.00;74.80
27314;DHT22;14800;48.174;9.798;2023-04-03T08:20:06;6.10;74.70
27314;DHT22;14800;48.174;9.798;2023-04-03T08:22:32;6.10;74.50
27314;DHT22;14800;48.174;9.798;2023-04-03T08:24:58;6.20;74.50
27314;DHT22;14800;48.174;9.798;2023-04-03T08:27:24;6.20;74.40
27314;DHT22;14800;48.174;9.798;2023-04-03T08:29:50;6.20;74.50
27314;DHT22;14800;48.174;9.798;2023-04-03T08:32:15;6.20;74.30
27314;DHT22;14800;48.174;9.798;2023-04-03T08:34:41;6.30;74.20
27314;DHT22;14800;48.174;9.798;2023-04-03T08:37:06;6.30;74.10
27314;DHT22;14800;48.174;9.798;2023-04-03T08:39:32;6.30;74.10
27314;DHT22;14800;48.174;9.798;2023-04-03T08:42:00;6.30;74.00
27314;DHT22;14800;48.174;9.798;2023-04-03T08:45:36;6.30;73.90
27314;DHT22;14800;48.174;9.798;2023-04-03T08:47:43;6.40;73.50
27314;DHT22;14800;48.174;9.798;2023-04-03T08:50:15;6.40;74.00
27314;DHT22;14800;48.174;9.798;2023-04-03T08:52:45;6.40;74.10
27314;DHT22;14800;48.174;9.798;2023-04-03T08:55:19;6.50;74.10
27314;DHT22;14800;48.174;9.798;2023-04-03T08:57:48;6.50;73.90
27314;DHT22;14800;48.174;9.798;2023-04-03T09:00:19;6.60;74.00
27314;DHT22;14800;48.174;9.798;2023-04-03T09:02:53;6.60;73.90
27314;DHT22;14800;48.174;9.798;2023-04-03T09:05:29;6.70;73.50
27314;DHT22;14800;48.174;9.798;2023-04-03T09:08:01;6.70;73.50
27314;DHT22;14800;48.174;9.798;2023-04-03T09:10:32;6.80;73.50
27314;DHT22;14800;48.174;9.798;2023-04-03T09:13:10;6.80;73.20
27314;DHT22;14800;48.174;9.798;2023-04-03T09:15:38;6.90;72.80
27314;DHT22;14800;48.174;9.798;2023-04-03T09:18:23;7.00;73.00
27314;DHT22;14800;48.174;9.798;2023-04-03T09:26:15;7.10;71.70
27314;DHT22;14800;48.174;9.798;2023-04-03T09:28:43;7.10;71.40
27314;DHT22;14800;48.174;9.798;2023-04-03T09:31:31;7.10;71.40
27314;DHT22;14800;48.174;9.798;2023-04-03T09:34:05;7.20;70.70
27314;DHT22;14800;48.174;9.798;2023-04-03T09:36:49;7.20;71.30
27314;DHT22;14800;48.174;9.798;2023-04-03T09:39:19;7.30;70.40
27314;DHT22;14800;48.174;9.798;2023-04-03T09:42:03;7.30;70.80
27314;DHT22;14800;48.174;9.798;2023-04-03T09:44:33;7.40;70.00
27314;DHT22;14800;48.174;9.798;2023-04-03T09:46:59;7.40;70.60
27314;DHT22;14800;48.174;9.798;2023-04-03T09:49:25;7.40;71.10
27314;DHT22;14800;48.174;9.798;2023-04-03T09:51:51;7.50;69.90
27314;DHT22;14800;48.174;9.798;2023-04-03T09:54:32;7.40;69.30
27314;DHT22;14800;48.174;9.798;2023-04-03T09:57:06;7.40;68.80
27314;DHT22;14800;48.174;9.798;2023-04-03T09:59:32;7.40;69.20
27314;DHT22;14800;48.174;9.798;2023-04-03T10:02:04;7.40;69.80
27314;DHT22;14800;48.174;9.798;2023-04-03T10:04:43;7.40;69.50
27314;DHT22;14800;48.174;9.798;2023-04-03T10:10:21;7.50;68.80
27314;DHT22;14800;48.174;9.798;2023-04-03T10:12:45;7.50;69.20
27314;DHT22;14800;48.174;9.798;2023-04-03T10:15:18;7.50;69.70
27314;DHT22;14800;48.174;9.798;2023-04-03T10:20:51;7.60;68.80
27314;DHT22;14800;48.174;9.798;2023-04-03T10:23:18;7.60;69.00
27314;DHT22;14800;48.174;9.798;2023-04-03T10:26:26;7.60;69.00
27314;DHT22;14800;48.174;9.798;2023-04-03T10:29:13;7.70;68.00
27314;DHT22;14800;48.174;9.798;2023-04-03T10:31:49;7.80;68.20
27314;DHT22;14800;48.174;9.798;2023-04-03T10:34:39;7.90;68.30
27314;DHT22;14800;48.174;9.798;2023-04-03T10:37:24;7.90;67.60
27314;DHT22;14800;48.174;9.798;2023-04-03T10:39:59;8.00;67.60
27314;DHT22;14800;48.174;9.798;2023-04-03T10:42:44;8.00;68.00
27314;DHT22;14800;48.174;9.798;2023-04-03T10:45:27;8.10;67.50
27314;DHT22;14800;48.174;9.798;2023-04-03T10:59:26;8.10;67.40
27314;DHT22;14800;48.174;9.798;2023-04-03T11:02:48;8.20;66.00
27314;DHT22;14800;48.174;9.798;2023-04-03T11:04:49;8.20;66.80
27314;DHT22;14800;48.174;9.798;2023-04-03T11:07:22;8.20;67.10
27314;DHT22;14800;48.174;9.798;2023-04-03T11:10:02;8.20;66.60
27314;DHT22;14800;48.174;9.798;2023-04-03T11:12:51;8.20;66.40
27314;DHT22;14800;48.174;9.798;2023-04-03T11:15:19;8.20;66.10
27314;DHT22;14800;48.174;9.798;2023-04-03T11:18:00;8.20;66.60
27314;DHT22;14800;48.174;9.798;2023-04-03T11:20:30;8.10;65.60
27314;DHT22;14800;48.174;9.798;2023-04-03T11:23:12;8.10;65.70
27314;DHT22;14800;48.174;9.798;2023-04-03T11:25:42;8.10;66.10
27314;DHT22;14800;48.174;9.798;2023-04-03T11:28:13;8.00;66.40
27314;DHT22;14800;48.174;9.798;2023-04-03T11:31:15;8.00;65.50
27314;DHT22;14800;48.174;9.798;2023-04-03T11:36:47;8.00;65.70
27314;DHT22;14800;48.174;9.798;2023-04-03T11:39:34;8.00;65.70
27314;DHT22;14800;48.174;9.798;2023-04-03T11:42:37;8.00;65.30
27314;DHT22;14800;48.174;9.798;2023-04-03T11:48:04;8.00;65.50
27314;DHT22;14800;48.174;9.798;2023-04-03T11:50:47;8.00;65.70
27314;DHT22;14800;48.174;9.798;2023-04-03T11:55:58;8.00;66.20
27314;DHT22;14800;48.174;9.798;2023-04-03T11:58:34;8.00;65.20
27314;DHT22;14800;48.174;9.798;2023-04-03T12:01:08;8.00;65.20
27314;DHT22;14800;48.174;9.798;2023-04-03T12:16:06;8.10;64.20
27314;DHT22;14800;48.174;9.798;2023-04-03T12:18:44;8.10;64.10
27314;DHT22;14800;48.174;9.798;2023-04-03T12:21:11;8.10;63.90
27314;DHT22;14800;48.174;9.798;2023-04-03T12:29:29;8.10;64.10
27314;DHT22;14800;48.174;9.798;2023-04-03T12:42:47;8.30;63.90
27314;DHT22;14800;48.174;9.798;2023-04-03T12:45:25;8.30;64.00
27314;DHT22;14800;48.174;9.798;2023-04-03T12:47:54;8.30;63.80
27314;DHT22;14800;48.174;9.798;2023-04-03T12:50:28;8.30;64.30
27314;DHT22;14800;48.174;9.798;2023-04-03T12:55:42;8.40;64.30
27314;DHT22;14800;48.174;9.798;2023-04-03T12:58:22;8.40;64.60
27314;DHT22;14800;48.174;9.798;2023-04-03T13:01:10;8.50;63.80
27314;DHT22;14800;48.174;9.798;2023-04-03T13:03:39;8.50;64.10
27314;DHT22;14800;48.174;9.798;2023-04-03T13:06:05;8.60;64.60
27314;DHT22;14800;48.174;9.798;2023-04-03T13:08:32;8.60;64.50
27314;DHT22;14800;48.174;9.798;2023-04-03T13:11:02;8.60;63.80
27314;DHT22;14800;48.174;9.798;2023-04-03T13:13:28;8.60;63.70
27314;DHT22;14800;48.174;9.798;2023-04-03T13:15:54;8.60;64.00
27314;DHT22;14800;48.174;9.798;2023-04-03T13:18:32;8.60;64.30
27314;DHT22;14800;48.174;9.798;2023-04-03T13:21:33;8.70;64.30
27314;DHT22;14800;48.174;9.798;2023-04-03T13:23:55;8.70;63.80
27314;DHT22;14800;48.174;9.798;2023-04-03T13:26:25;8.70;63.60
27314;DHT22;14800;48.174;9.798;2023-04-03T13:28:51;8.70;63.70
27314;DHT22;14800;48.174;9.798;2023-04-03T13:31:44;8.70;63.10
27314;DHT22;14800;48.174;9.798;2023-04-03T13:34:11;8.70;62.60
27314;DHT22;14800;48.174;9.798;2023-04-03T13:36:40;8.70;62.50
27314;DHT22;14800;48.174;9.798;2023-04-03T13:41:42;8.70;63.40
27314;DHT22;14800;48.174;9.798;2023-04-03T13:44:27;8.70;62.20
27314;DHT22;14800;48.174;9.798;2023-04-03T13:46:57;8.70;62.10
27314;DHT22;14800;48.174;9.798;2023-04-03T13:51:52;8.70;63.20
27314;DHT22;14800;48.174;9.798;2023-04-03T13:54:21;8.70;63.20
27314;DHT22;14800;48.174;9.798;2023-04-03T13:56:54;8.60;63.10
27314;DHT22;14800;48.174;9.798;2023-04-03T13:59:32;8.60;62.90
27314;DHT22;14800;48.174;9.798;2023-04-03T14:04:31;8.50;62.90
27314;DHT22;14800;48.174;9.798;2023-04-03T14:06:57;8.50;63.10
27314;DHT22;14800;48.174;9.798;2023-04-03T14:09:25;8.40;63.10
27314;DHT22;14800;48.174;9.798;2023-04-03T14:11:55;8.40;63.30
27314;DHT22;14800;48.174;9.798;2023-04-03T14:14:27;8.40;63.20
27314;DHT22;14800;48.174;9.798;2023-04-03T14:16:56;8.40;63.50
27314;DHT22;14800;48.174;9.798;2023-04-03T14:19:30;8.40;63.40
27314;DHT22;14800;48.174;9.798;2023-04-03T14:21:56;8.40;63.30
27314;DHT22;14800;48.174;9.798;2023-04-03T14:24:23;8.40;63.40
27314;DHT22;14800;48.174;9.798;2023-04-03T14:26:50;8.40;63.40
27314;DHT22;14800;48.174;9.798;2023-04-03T14:29:17;8.30;63.80
27314;DHT22;14800;48.174;9.798;2023-04-03T14:31:45;8.30;62.40
27314;DHT22;14800;48.174;9.798;2023-04-03T14:34:12;8.30;63.10
27314;DHT22;14800;48.174;9.798;2023-04-03T14:36:39;8.40;63.50
27314;DHT22;14800;48.174;9.798;2023-04-03T14:39:07;8.40;62.90
27314;DHT22;14800;48.174;9.798;2023-04-03T14:41:32;8.40;63.30
27314;DHT22;14800;48.174;9.798;2023-04-03T14:43:58;8.40;63.30
27314;DHT22;14800;48.174;9.798;2023-04-03T14:46:35;8.40;63.30
27314;DHT22;14800;48.174;9.798;2023-04-03T14:49:03;8.40;62.70
27314;DHT22;14800;48.174;9.798;2023-04-03T14:51:33;8.40;63.10
27314;DHT22;14800;48.174;9.798;2023-04-03T14:53:58;8.40;63.00
27314;DHT22;14800;48.174;9.798;2023-04-03T14:56:28;8.40;63.00
27314;DHT22;14800;48.174;9.798;2023-04-03T14:58:59;8.40;63.00
27314;DHT22;14800;48.174;9.798;2023-04-03T15:01:27;8.40;62.90
27314;DHT22;14800;48.174;9.798;2023-04-03T15:03:53;8.40;62.80
27314;DHT22;14800;48.174;9.798;2023-04-03T15:06:18;8.40;62.70
27314;DHT22;14800;48.174;9.798;2023-04-03T15:08:45;8.40;62.80
27314;DHT22;14800;48.174;9.798;2023-04-03T15:11:12;8.50;62.70
27314;DHT22;14800;48.174;9.798;2023-04-03T15:13:38;8.50;62.10
27314;DHT22;14800;48.174;9.798;2023-04-03T15:16:37;8.50;62.00
27314;DHT22;14800;48.174;9.798;2023-04-03T15:18:56;8.50;62.30
27314;DHT22;14800;48.174;9.798;2023-04-03T15:21:22;8.50;62.40
27314;DHT22;14800;48.174;9.798;2023-04-03T15:23:47;8.60;62.30
27314;DHT22;14800;48.174;9.798;2023-04-03T15:26:13;8.60;62.20
27314;DHT22;14800;48.174;9.798;2023-04-03T15:28:41;8.60;62.00
27314;DHT22;14800;48.174;9.798;2023-04-03T15:31:08;8.70;61.20
27314;DHT22;14800;48.174;9.798;2023-04-03T15:33:35;8.70;60.30
27314;DHT22;14800;48.174;9.798;2023-04-03T15:36:01;8.80;60.00
27314;DHT22;14800;48.174;9.798;2023-04-03T15:38:27;8.70;60.00
27314;DHT22;14800;48.174;9.798;2023-04-03T15:40:53;8.80;60.00
27314;DHT22;14800;48.174;9.798;2023-04-03T15:43:19;8.80;59.80
27314;DHT22;14800;48.174;9.798;2023-04-03T15:45:45;8.70;60.00
27314;DHT22;14800;48.174;9.798;2023-04-03T15:48:11;8.70;60.30
27314;DHT22;14800;48.174;9.798;2023-04-03T15:50:37;8.70;60.60
27314;DHT22;14800;48.174;9.798;2023-04-03T15:53:03;8.70;60.10
27314;DHT22;14800;48.174;9.798;2023-04-03T15:55:31;8.60;59.90
27314;DHT22;14800;48.174;9.798;2023-04-03T15:57:57;8.60;59.40
27314;DHT22;14800;48.174;9.798;2023-04-03T16:00:24;8.50;59.90
27314;DHT22;14800;48.174;9.798;2023-04-03T16:03:11;8.50;59.70
27314;DHT22;14800;48.174;9.798;2023-04-03T16:05:38;8.40;59.70
27314;DHT22;14800;48.174;9.798;2023-04-03T16:08:05;8.30;60.30
27314;DHT22;14800;48.174;9.798;2023-04-03T16:10:33;8.30;60.30
27314;DHT22;14800;48.174;9.798;2023-04-03T16:12:58;8.30;60.30
27314;DHT22;14800;48.174;9.798;2023-04-03T16:15:24;8.30;59.60
27314;DHT22;14800;48.174;9.798;2023-04-03T16:17:52;8.30;60.30
27314;DHT22;14800;48.174;9.798;2023-04-03T16:20:18;8.30;60.50
27314;DHT22;14800;48.174;9.798;2023-04-03T16:22:44;8.20;60.50
27314;DHT22;14800;48.174;9.798;2023-04-03T16:25:11;8.20;60.30
27314;DHT22;14800;48.174;9.798;2023-04-03T16:27:37;8.20;60.20
27314;DHT22;14800;48.174;9.798;2023-04-03T16:30:03;8.20;60.20
27314;DHT22;14800;48.174;9.798;2023-04-03T16:32:30;8.30;60.10
27314;DHT22;14800;48.174;9.798;2023-04-03T16:34:56;8.30;60.00
27314;DHT22;14800;48.174;9.798;2023-04-03T16:37:22;8.30;60.00
27314;DHT22;14800;48.174;9.798;2023-04-03T16:39:48;8.30;59.90
27314;DHT22;14800;48.174;9.798;2023-04-03T16:42:13;8.30;59.80
27314;DHT22;14800;48.174;9.798;2023-04-03T16:44:39;8.30;59.60
27314;DHT22;14800;48.174;9.798;2023-04-03T16:47:06;8.30;59.30
27314;DHT22;14800;48.174;9.798;2023-04-03T16:49:32;8.30;59.00
27314;DHT22;14800;48.174;9.798;2023-04-03T16:51:59;8.30;59.00
27314;DHT22;14800;48.174;9.798;2023-04-03T16:54:26;8.20;59.20
27314;DHT22;14800;48.174;9.798;2023-04-03T16:56:51;8.20;59.30
27314;DHT22;14800;48.174;9.798;2023-04-03T16:59:17;8.20;59.20
27314;DHT22;14800;48.174;9.798;2023-04-03T17:01:43;8.20;59.10
27314;DHT22;14800;48.174;9.798;2023-04-03T17:04:09;8.10;58.80
27314;DHT22;14800;48.174;9.798;2023-04-03T17:06:34;8.10;58.80
27314;DHT22;14800;48.174;9.798;2023-04-03T17:09:00;8.00;58.60
27314;DHT22;14800;48.174;9.798;2023-04-03T17:11:27;8.00;58.30
27314;DHT22;14800;48.174;9.798;2023-04-03T17:13:53;7.90;58.30
27314;DHT22;14800;48.174;9.798;2023-04-03T17:16:19;7.90;58.40